Main page
METAR-TAF:

METAR-TAF

Airports :

Mason Jewett Field

Mason, Michigan, United States

latitude: 42-33-57N, longitude: 084-25-24W, elevation: 918 ft

Current weather observation

The report was made 27 minutes ago, at 19:35 UTC
Wind 10 mph from the East/Northeast
Temperature 43°F
Humidity 61%
Pressure 30.25 in. Hg
Visibility: 10 miles
Overcast at a height of 2900 ft

METAR: KTEW 241935Z AUTO 06009KT 10SM OVC029 06/M01 A3025 RMK AO2 T00571012

Time: 16:02 (20:02 UTC)


TAF: missing

Weather observations and forecasts of more than 4000 airports (METAR and TAF reports).

The available stations are represented by yellow and red dots on the map.

Hover mouse over dot to see the name of the station.

Then click to see weather observations and forecasts.

To change the map : click on the green buttons with a black cross to zoom in, on the green button with a dash to zoom out, or on the green arrows for adjacent maps.


METAR-TAF: